Time,TemperatureF,DewpointF,PressureIn,WindDirection,WindDirectionDegrees,WindSpeedMPH,WindSpeedGustMPH,Humidity,HourlyPrecipIn,Conditions,Clouds,dailyrainin,SolarRadiationWatts/m^2,SoftwareType,DateUTC
2013-09-14 00:00:00,55.8,50.4,30.00,North,360,3.0,4.0,82,0.00,CLR,CLR,0.00,0.0,WeatherDisplay:10.37,2013-09-14 04:00:00,
2013-09-14 00:05:00,55.6,50.5,30.00,North,360,5.0,5.0,83,0.00,CLR,CLR,0.00,0.0,WeatherDisplay:10.37,2013-09-14 04:05:00,
2013-09-14 00:10:00,55.3,50.2,30.00,North,360,2.0,5.0,83,0.00,CLR,CLR,0.00,0.0,WeatherDisplay:10.37,2013-09-14 04:10:00,
2013-09-14 00:20:00,55.0,50.6,30.00,North,360,0.0,4.0,85,0.00,CLR,CLR,0.00,0.0,WeatherDisplay:10.37,2013-09-14 04:20:00,
2013-09-14 00:25:00,54.9,50.4,30.00,North,360,0.0,3.0,85,0.00,CLR,CLR,0.00,0.0,WeatherDisplay:10.37,2013-09-14 04:25:00,
2013-09-14 00:30:00,54.7,50.3,30.00,North,360,0.0,3.0,85,0.00,CLR,CLR,0.00,0.0,WeatherDisplay:10.37,2013-09-14 04:30:00,
2013-09-14 00:40:00,54.1,50.3,30.00,North,360,0.0,0.0,87,0.00,CLR,CLR,0.00,0.0,WeatherDisplay:10.37,2013-09-14 04:40:00,
2013-09-14 00:49:00,53.9,50.1,30.00,North,360,0.0,0.0,87,0.00,CLR,CLR,0.00,0.0,WeatherDisplay:10.37,2013-09-14 04:49:00,
2013-09-14 00:54:00,53.8,50.0,30.00,North,360,0.0,0.0,87,0.00,CLR,CLR,0.00,0.0,WeatherDisplay:10.37,2013-09-14 04:54:00,
2013-09-14 01:00:00,53.8,50.1,30.00,North,360,1.0,3.0,87,0.00,CLR,CLR,0.00,0.0,WeatherDisplay:10.37,2013-09-14 05:00:00,
2013-09-14 01:05:00,53.9,50.1,30.00,North,360,1.0,2.0,87,0.00,CLR,CLR,0.00,0.0,WeatherDisplay:10.37,2013-09-14 05:05:00,
2013-09-14 01:10:00,53.9,50.1,30.00,North,360,2.0,4.0,87,0.00,CLR,CLR,0.00,0.0,WeatherDisplay:10.37,2013-09-14 05:10:00,
2013-09-14 01:15:00,53.9,50.1,30.00,North,360,0.0,2.0,87,0.00,CLR,CLR,0.00,0.0,WeatherDisplay:10.37,2013-09-14 05:15:00,
2013-09-14 01:20:00,53.7,50.2,30.00,North,360,0.0,0.0,88,0.00,CLR,CLR,0.00,0.0,WeatherDisplay:10.37,2013-09-14 05:20:00,
2013-09-14 01:25:00,53.4,50.3,30.00,North,360,1.0,3.0,89,0.00,CLR,CLR,0.00,0.0,WeatherDisplay:10.37,2013-09-14 05:25:00,
2013-09-14 01:35:00,52.9,50.0,30.00,North,360,0.0,0.0,90,0.00,CLR,CLR,0.00,0.0,WeatherDisplay:10.37,2013-09-14 05:35:00,
2013-09-14 01:40:00,52.6,49.8,30.00,North,360,0.0,0.0,90,0.00,CLR,CLR,0.00,0.0,WeatherDisplay:10.37,2013-09-14 05:40:00,
2013-09-14 01:45:00,52.4,49.8,30.00,North,360,0.0,0.0,91,0.00,CLR,CLR,0.00,0.0,WeatherDisplay:10.37,2013-09-14 05:45:00,
2013-09-14 01:50:00,52.2,49.7,30.00,North,360,0.0,2.0,91,0.00,CLR,CLR,0.00,0.0,WeatherDisplay:10.37,2013-09-14 05:50:00,
2013-09-14 01:59:00,51.9,49.6,30.00,North,360,0.0,0.0,92,0.00,CLR,CLR,0.00,0.0,WeatherDisplay:10.37,2013-09-14 05:59:00,
2013-09-14 02:05:00,51.9,49.6,30.00,North,360,0.0,0.0,92,0.00,CLR,CLR,0.00,0.0,WeatherDisplay:10.37,2013-09-14 06:05:00,
2013-09-14 02:10:00,51.8,49.5,30.00,North,360,0.0,0.0,92,0.00,CLR,CLR,0.00,0.0,WeatherDisplay:10.37,2013-09-14 06:10:00,
2013-09-14 02:19:00,51.9,49.6,30.00,North,360,0.0,0.0,92,0.00,CLR,CLR,0.00,0.0,WeatherDisplay:10.37,2013-09-14 06:19:00,
2013-09-14 02:25:00,51.9,49.6,30.01,North,360,0.0,0.0,92,0.00,CLR,CLR,0.00,0.0,WeatherDisplay:10.37,2013-09-14 06:25:00,
2013-09-14 02:30:00,51.7,49.5,30.01,North,360,0.0,0.0,92,0.00,CLR,CLR,0.00,0.0,WeatherDisplay:10.37,2013-09-14 06:30:00,
2013-09-14 02:35:00,51.6,49.4,30.01,North,360,0.0,0.0,92,0.00,CLR,CLR,0.00,0.0,WeatherDisplay:10.37,2013-09-14 06:35:00,
2013-09-14 02:40:00,51.5,49.3,30.01,North,360,0.0,0.0,92,0.00,CLR,CLR,0.00,0.0,WeatherDisplay:10.37,2013-09-14 06:40:00,
2013-09-14 02:45:00,51.4,49.2,30.00,North,360,0.0,2.0,92,0.00,CLR,CLR,0.00,0.0,WeatherDisplay:10.37,2013-09-14 06:45:00,
2013-09-14 02:50:00,51.4,49.4,30.00,North,360,0.0,0.0,93,0.00,CLR,CLR,0.00,0.0,WeatherDisplay:10.37,2013-09-14 06:50:00,
2013-09-14 02:55:00,51.3,49.3,30.00,North,360,0.0,0.0,93,0.00,CLR,CLR,0.00,0.0,WeatherDisplay:10.37,2013-09-14 06:55:00,
2013-09-14 03:05:00,51.0,49.0,30.01,North,360,0.0,0.0,93,0.00,CLR,CLR,0.00,0.0,WeatherDisplay:10.37,2013-09-14 07:05:00,
2013-09-14 03:10:00,50.8,48.9,30.01,North,360,0.0,0.0,93,0.00,CLR,CLR,0.00,0.0,WeatherDisplay:10.37,2013-09-14 07:10:00,
2013-09-14 03:15:00,50.8,49.1,30.01,North,360,0.0,0.0,94,0.00,CLR,CLR,0.00,0.0,WeatherDisplay:10.37,2013-09-14 07:15:00,
2013-09-14 03:25:00,50.7,49.0,30.01,North,360,0.0,3.0,94,0.00,CLR,CLR,0.00,0.0,WeatherDisplay:10.37,2013-09-14 07:25:00,
2013-09-14 03:35:00,50.6,48.7,30.01,North,360,0.0,0.0,93,0.00,CLR,CLR,0.00,0.0,WeatherDisplay:10.37,2013-09-14 07:35:00,
2013-09-14 03:40:00,50.6,48.9,30.01,North,360,0.0,0.0,94,0.00,CLR,CLR,0.00,0.0,WeatherDisplay:10.37,2013-09-14 07:40:00,
2013-09-14 03:45:00,50.6,48.9,30.01,North,360,0.0,0.0,94,0.00,CLR,CLR,0.00,0.0,WeatherDisplay:10.37,2013-09-14 07:45:00,
2013-09-14 03:50:00,50.8,49.1,30.00,North,360,2.0,3.0,94,0.00,CLR,CLR,0.00,0.0,WeatherDisplay:10.37,2013-09-14 07:50:00,
2013-09-14 03:55:00,50.8,49.1,30.00,North,360,2.0,3.0,94,0.00,CLR,CLR,0.00,0.0,WeatherDisplay:10.37,2013-09-14 07:55:00,
2013-09-14 04:04:00,50.6,48.7,30.01,North,360,0.0,0.0,93,0.00,CLR,CLR,0.00,0.0,WeatherDisplay:10.37,2013-09-14 08:04:00,
2013-09-14 04:09:00,50.6,48.7,30.01,North,360,0.0,0.0,93,0.00,CLR,CLR,0.00,0.0,WeatherDisplay:10.37,2013-09-14 08:09:00,
2013-09-14 04:14:00,50.5,48.6,30.01,North,360,0.0,0.0,93,0.00,CLR,CLR,0.00,0.0,WeatherDisplay:10.37,2013-09-14 08:14:00,
2013-09-14 04:19:00,50.3,48.4,30.01,North,360,0.0,0.0,93,0.00,CLR,CLR,0.00,0.0,WeatherDisplay:10.37,2013-09-14 08:19:00,
2013-09-14 04:25:00,50.1,48.2,30.00,North,360,2.0,3.0,93,0.00,CLR,CLR,0.00,0.0,WeatherDisplay:10.37,2013-09-14 08:25:00,
2013-09-14 04:30:00,50.0,48.1,30.01,North,360,0.0,1.0,93,0.00,CLR,CLR,0.00,0.0,WeatherDisplay:10.37,2013-09-14 08:30:00,
2013-09-14 04:39:00,49.7,48.0,30.01,North,360,2.0,4.0,94,0.00,CLR,CLR,0.00,0.0,WeatherDisplay:10.37,2013-09-14 08:39:00,
2013-09-14 04:44:00,49.5,47.9,30.01,North,360,1.0,3.0,94,0.00,CLR,CLR,0.00,0.0,WeatherDisplay:10.37,2013-09-14 08:44:00,
2013-09-14 04:50:00,49.5,48.2,30.01,North,360,0.0,3.0,95,0.00,CLR,CLR,0.00,0.0,WeatherDisplay:10.37,2013-09-14 08:50:00,
2013-09-14 04:55:00,49.5,48.2,30.01,North,360,0.0,0.0,95,0.00,CLR,CLR,0.00,0.0,WeatherDisplay:10.37,2013-09-14 08:55:00,
2013-09-14 05:00:00,49.5,47.8,30.01,North,360,2.0,3.0,94,0.00,CLR,CLR,0.00,0.0,WeatherDisplay:10.37,2013-09-14 09:00:00,
2013-09-14 05:05:00,49.5,48.1,30.01,North,360,1.0,3.0,95,0.00,CLR,CLR,0.00,0.0,WeatherDisplay:10.37,2013-09-14 09:05:00,
2013-09-14 05:15:00,49.3,47.9,30.01,North,360,0.0,0.0,95,0.00,CLR,CLR,0.00,0.0,WeatherDisplay:10.37,2013-09-14 09:15:00,
2013-09-14 05:20:00,49.2,47.5,30.01,North,360,0.0,2.0,94,0.00,CLR,CLR,0.00,0.0,WeatherDisplay:10.37,2013-09-14 09:20:00,
2013-09-14 05:30:00,48.8,47.4,30.01,North,360,0.0,1.0,95,0.00,CLR,CLR,0.00,0.0,WeatherDisplay:10.37,2013-09-14 09:30:00,
2013-09-14 05:40:00,48.6,47.2,30.01,North,360,0.0,1.0,95,0.00,CLR,CLR,0.00,0.0,WeatherDisplay:10.37,2013-09-14 09:40:00,
2013-09-14 05:50:00,48.7,47.3,30.02,North,360,2.0,3.0,95,0.00,CLR,CLR,0.00,0.0,WeatherDisplay:10.37,2013-09-14 09:50:00,
2013-09-14 06:00:00,48.6,47.2,30.02,North,360,2.0,3.0,95,0.00,CLR,CLR,0.00,0.0,WeatherDisplay:10.37,2013-09-14 10:00:00,
2013-09-14 06:05:00,48.6,47.2,30.03,North,360,0.0,2.0,95,0.00,CLR,CLR,0.00,0.0,WeatherDisplay:10.37,2013-09-14 10:05:00,
2013-09-14 06:10:00,48.6,47.2,30.02,North,360,0.0,0.0,95,0.00,CLR,CLR,0.00,0.0,WeatherDisplay:10.37,2013-09-14 10:10:00,
2013-09-14 06:15:00,48.5,47.4,30.03,North,360,0.0,0.0,96,0.00,CLR,CLR,0.00,0.0,WeatherDisplay:10.37,2013-09-14 10:15:00,
2013-09-14 06:20:00,48.6,47.5,30.03,North,360,0.0,0.0,96,0.00,CLR,CLR,0.00,0.0,WeatherDisplay:10.37,2013-09-14 10:20:00,
2013-09-14 06:30:00,48.7,47.6,30.03,North,360,0.0,0.0,96,0.00,CLR,CLR,0.00,0.0,WeatherDisplay:10.37,2013-09-14 10:30:00,
2013-09-14 06:40:00,48.8,47.7,30.04,North,360,0.0,0.0,96,0.00,CLR,CLR,0.00,0.0,WeatherDisplay:10.37,2013-09-14 10:40:00,
2013-09-14 06:45:00,48.8,47.7,30.04,North,360,0.0,0.0,96,0.00,CLR,CLR,0.00,0.0,WeatherDisplay:10.37,2013-09-14 10:45:00,
2013-09-14 06:50:00,48.8,47.7,30.04,North,360,0.0,0.0,96,0.00,CLR,CLR,0.00,0.0,WeatherDisplay:10.37,2013-09-14 10:50:00,
2013-09-14 06:55:00,48.8,47.7,30.05,North,360,0.0,0.0,96,0.00,CLR,CLR,0.00,0.0,WeatherDisplay:10.37,2013-09-14 10:55:00,
2013-09-14 07:00:00,48.8,47.7,30.05,North,360,0.0,0.0,96,0.00,OVC,OVC,0.00,0.0,WeatherDisplay:10.37,2013-09-14 11:00:00,
2013-09-14 07:10:00,48.9,47.9,30.05,North,360,0.0,0.0,96,0.00,OVC,OVC,0.00,0.0,WeatherDisplay:10.37,2013-09-14 11:10:00,
2013-09-14 07:15:00,49.1,48.0,30.05,North,360,0.0,0.0,96,0.00,OVC,OVC,0.00,0.0,WeatherDisplay:10.37,2013-09-14 11:15:00,
2013-09-14 07:20:00,49.1,48.0,30.05,North,360,0.0,0.0,96,0.00,OVC,OVC,0.00,5.0,WeatherDisplay:10.37,2013-09-14 11:20:00,
2013-09-14 07:30:00,49.0,47.6,30.06,North,360,0.0,0.0,95,0.00,OVC,OVC,0.00,12.0,WeatherDisplay:10.37,2013-09-14 11:30:00,
2013-09-14 07:35:00,48.8,47.4,30.06,North,360,0.0,0.0,95,0.00,BKN,BKN,0.00,21.0,WeatherDisplay:10.37,2013-09-14 11:35:00,
2013-09-14 07:45:00,48.3,46.9,30.07,North,360,0.0,0.0,95,0.00,BKN,BKN,0.00,39.0,WeatherDisplay:10.37,2013-09-14 11:45:00,
2013-09-14 07:50:00,48.5,47.4,30.07,North,360,0.0,0.0,96,0.00,SCT,SCT,0.00,51.0,WeatherDisplay:10.37,2013-09-14 11:50:00,
2013-09-14 07:55:00,48.6,47.5,30.07,North,360,0.0,0.0,96,0.00,BKN,BKN,0.00,51.0,WeatherDisplay:10.37,2013-09-14 11:55:00,
2013-09-14 08:00:00,48.6,47.5,30.08,North,360,0.0,0.0,96,0.00,BKN,BKN,0.00,49.0,WeatherDisplay:10.37,2013-09-14 12:00:00,
2013-09-14 08:05:00,48.6,47.5,30.08,North,360,0.0,0.0,96,0.00,OVC,OVC,0.00,49.0,WeatherDisplay:10.37,2013-09-14 12:05:00,
2013-09-14 08:10:00,48.6,47.5,30.08,North,360,0.0,0.0,96,0.00,OVC,OVC,0.00,56.0,WeatherDisplay:10.37,2013-09-14 12:10:00,
2013-09-14 08:20:00,48.8,47.7,30.08,North,360,0.0,0.0,96,0.00,BKN,BKN,0.00,88.0,WeatherDisplay:10.37,2013-09-14 12:20:00,
2013-09-14 08:25:00,48.9,47.8,30.08,North,360,0.0,0.0,96,0.00,BKN,BKN,0.00,105.0,WeatherDisplay:10.37,2013-09-14 12:25:00,
2013-09-14 08:35:00,49.3,48.2,30.08,North,360,0.0,0.0,96,0.00,SCT,SCT,0.00,141.0,WeatherDisplay:10.37,2013-09-14 12:35:00,
2013-09-14 08:40:00,49.8,48.9,30.08,North,360,0.0,0.0,97,0.00,CLR,CLR,0.00,315.0,WeatherDisplay:10.37,2013-09-14 12:40:00,
2013-09-14 08:50:00,50.3,49.2,30.08,North,360,0.0,0.0,96,0.00,BKN,BKN,0.00,151.0,WeatherDisplay:10.37,2013-09-14 12:50:00,
2013-09-14 08:55:00,50.5,49.4,30.08,North,360,0.0,0.0,96,0.00,BKN,BKN,0.00,163.0,WeatherDisplay:10.37,2013-09-14 12:55:00,
2013-09-14 09:05:00,51.5,50.4,30.09,North,360,0.0,0.0,96,0.00,CLR,CLR,0.00,420.0,WeatherDisplay:10.37,2013-09-14 13:05:00,
2013-09-14 09:10:00,52.2,51.1,30.09,North,360,0.0,0.0,96,0.00,CLR,CLR,0.00,408.0,WeatherDisplay:10.37,2013-09-14 13:10:00,
2013-09-14 09:20:00,52.8,50.8,30.09,North,360,0.0,0.0,93,0.00,BKN,BKN,0.00,176.0,WeatherDisplay:10.37,2013-09-14 13:20:00,
2013-09-14 09:25:00,53.0,51.0,30.09,North,360,0.0,0.0,93,0.00,BKN,BKN,0.00,209.0,WeatherDisplay:10.37,2013-09-14 13:25:00,
2013-09-14 09:35:00,53.5,51.8,30.09,North,360,0.0,0.0,94,0.00,SCT,SCT,0.00,251.0,WeatherDisplay:10.37,2013-09-14 13:35:00,
2013-09-14 09:39:00,54.0,52.0,30.10,North,360,0.0,0.0,93,0.00,SCT,SCT,0.00,260.0,WeatherDisplay:10.37,2013-09-14 13:39:00,
2013-09-14 09:45:00,54.4,52.1,30.09,North,360,0.0,0.0,92,0.00,BKN,BKN,0.00,251.0,WeatherDisplay:10.37,2013-09-14 13:45:00,
2013-09-14 09:50:00,54.7,51.8,30.09,North,360,0.0,1.0,90,0.00,CLR,CLR,0.00,673.0,WeatherDisplay:10.37,2013-09-14 13:50:00,
2013-09-14 09:59:00,56.0,52.8,30.09,North,360,1.0,4.0,89,0.00,CLR,CLR,0.00,596.0,WeatherDisplay:10.37,2013-09-14 13:59:00,
2013-09-14 10:05:00,56.8,53.5,30.10,North,360,2.0,6.0,89,0.00,CLR,CLR,0.00,589.0,WeatherDisplay:10.37,2013-09-14 14:05:00,
2013-09-14 10:10:00,57.3,54.1,30.10,North,360,2.0,5.0,89,0.00,CLR,CLR,0.00,577.0,WeatherDisplay:10.37,2013-09-14 14:10:00,
2013-09-14 10:20:00,58.0,53.8,30.10,North,360,3.0,10.0,86,0.00,CLR,CLR,0.00,605.0,WeatherDisplay:10.37,2013-09-14 14:20:00,
2013-09-14 10:30:00,58.7,54.5,30.10,North,360,3.0,9.0,86,0.00,CLR,CLR,0.00,640.0,WeatherDisplay:10.37,2013-09-14 14:30:00,
2013-09-14 10:40:00,59.3,53.8,30.11,North,360,2.0,6.0,82,0.00,CLR,CLR,0.00,671.0,WeatherDisplay:10.37,2013-09-14 14:40:00,
2013-09-14 10:50:00,60.3,53.8,30.10,North,360,3.0,7.0,79,0.00,CLR,CLR,0.00,696.0,WeatherDisplay:10.37,2013-09-14 14:50:00,
2013-09-14 11:00:00,61.2,54.9,30.10,North,360,1.0,7.0,80,0.00,CLR,CLR,0.00,707.0,WeatherDisplay:10.37,2013-09-14 15:00:00,
2013-09-14 11:05:00,61.5,54.2,30.10,North,360,7.0,12.0,77,0.00,CLR,CLR,0.00,721.0,WeatherDisplay:10.37,2013-09-14 15:05:00,
2013-09-14 11:10:00,61.6,54.0,30.10,North,360,3.0,7.0,76,0.00,CLR,CLR,0.00,731.0,WeatherDisplay:10.37,2013-09-14 15:10:00,
2013-09-14 11:15:00,61.7,53.7,30.10,North,360,5.0,10.0,75,0.00,CLR,CLR,0.00,744.0,WeatherDisplay:10.37,2013-09-14 15:15:00,
2013-09-14 11:20:00,61.6,52.9,30.11,North,360,5.0,10.0,73,0.00,CLR,CLR,0.00,749.0,WeatherDisplay:10.37,2013-09-14 15:20:00,
2013-09-14 11:29:00,61.9,53.9,30.11,North,360,0.0,7.0,75,0.00,FEW,FEW,0.00,765.0,WeatherDisplay:10.37,2013-09-14 15:29:00,
2013-09-14 11:34:00,62.1,53.0,30.11,North,360,5.0,7.0,72,0.00,FEW,FEW,0.00,775.0,WeatherDisplay:10.37,2013-09-14 15:34:00,
2013-09-14 11:40:00,61.6,52.1,30.11,North,360,3.0,9.0,71,0.00,FEW,FEW,0.00,789.0,WeatherDisplay:10.37,2013-09-14 15:40:00,
2013-09-14 11:45:00,61.2,51.3,30.11,North,360,1.0,6.0,70,0.00,FEW,FEW,0.00,800.0,WeatherDisplay:10.37,2013-09-14 15:45:00,
2013-09-14 11:50:00,61.4,52.7,30.11,North,360,2.0,6.0,73,0.00,FEW,FEW,0.00,812.0,WeatherDisplay:10.37,2013-09-14 15:50:00,
2013-09-14 12:00:00,62.4,52.1,30.11,North,360,1.0,4.0,69,0.00,CLR,CLR,0.00,853.0,WeatherDisplay:10.37,2013-09-14 16:00:00,
2013-09-14 12:10:00,63.5,52.8,30.11,North,360,3.0,7.0,68,0.00,FEW,FEW,0.00,819.0,WeatherDisplay:10.37,2013-09-14 16:10:00,
2013-09-14 12:15:00,64.1,52.9,30.11,North,360,3.0,7.0,67,0.00,FEW,FEW,0.00,824.0,WeatherDisplay:10.37,2013-09-14 16:15:00,
2013-09-14 12:20:00,64.5,54.1,30.11,North,360,2.0,5.0,69,0.00,FEW,FEW,0.00,837.0,WeatherDisplay:10.37,2013-09-14 16:20:00,
2013-09-14 12:30:00,64.9,52.4,30.11,North,360,3.0,10.0,64,0.00,FEW,FEW,0.00,838.0,WeatherDisplay:10.37,2013-09-14 16:30:00,
2013-09-14 12:35:00,64.7,51.4,30.11,North,360,5.0,7.0,62,0.00,FEW,FEW,0.00,842.0,WeatherDisplay:10.37,2013-09-14 16:35:00,
2013-09-14 12:45:00,64.5,52.0,30.11,North,360,3.0,10.0,64,0.00,FEW,FEW,0.00,851.0,WeatherDisplay:10.37,2013-09-14 16:45:00,
2013-09-14 12:50:00,64.6,53.0,30.11,North,360,0.0,7.0,66,0.00,FEW,FEW,0.00,849.0,WeatherDisplay:10.37,2013-09-14 16:50:00,
2013-09-14 12:59:00,65.6,54.3,30.11,North,360,1.0,5.0,67,0.00,FEW,FEW,0.00,853.0,WeatherDisplay:10.37,2013-09-14 16:59:00,
2013-09-14 13:05:00,65.6,52.2,30.11,North,360,1.0,4.0,62,0.00,FEW,FEW,0.00,853.0,WeatherDisplay:10.37,2013-09-14 17:05:00,
2013-09-14 13:10:00,65.8,55.4,30.10,North,360,3.0,6.0,69,0.00,FEW,FEW,0.00,858.0,WeatherDisplay:10.37,2013-09-14 17:10:00,
2013-09-14 13:20:00,66.5,54.8,30.10,North,360,2.0,8.0,66,0.00,FEW,FEW,0.00,865.0,WeatherDisplay:10.37,2013-09-14 17:20:00,
2013-09-14 13:30:00,66.9,55.1,30.10,North,360,2.0,10.0,66,0.00,FEW,FEW,0.00,895.0,WeatherDisplay:10.37,2013-09-14 17:30:00,
2013-09-14 13:34:00,66.9,54.7,30.10,North,360,1.0,3.0,65,0.00,FEW,FEW,0.00,916.0,WeatherDisplay:10.37,2013-09-14 17:34:00,
2013-09-14 13:39:00,67.6,54.6,30.10,North,360,2.0,5.0,63,0.00,FEW,FEW,0.00,895.0,WeatherDisplay:10.37,2013-09-14 17:39:00,
2013-09-14 13:45:00,67.7,55.9,30.10,North,360,1.0,8.0,66,0.00,OVC,OVC,0.00,181.0,WeatherDisplay:10.37,2013-09-14 17:45:00,
2013-09-14 13:50:00,67.1,54.5,30.10,North,360,3.0,7.0,64,0.00,OVC,OVC,0.00,258.0,WeatherDisplay:10.37,2013-09-14 17:50:00,
2013-09-14 14:00:00,66.0,53.5,30.10,North,360,3.0,5.0,64,0.00,OVC,OVC,0.00,202.0,WeatherDisplay:10.37,2013-09-14 18:00:00,
2013-09-14 14:04:00,65.9,54.2,30.10,North,360,0.0,3.0,66,0.00,OVC,OVC,0.00,188.0,WeatherDisplay:10.37,2013-09-14 18:04:00,
2013-09-14 14:09:00,65.8,54.6,30.10,North,360,1.0,4.0,67,0.00,OVC,OVC,0.00,237.0,WeatherDisplay:10.37,2013-09-14 18:09:00,
2013-09-14 14:15:00,65.7,54.0,30.09,North,360,0.0,4.0,66,0.00,OVC,OVC,0.00,294.0,WeatherDisplay:10.37,2013-09-14 18:15:00,
2013-09-14 14:25:00,65.5,53.4,30.09,North,360,3.0,6.0,65,0.00,OVC,OVC,0.00,221.0,WeatherDisplay:10.37,2013-09-14 18:25:00,
2013-09-14 14:30:00,65.4,52.9,30.09,North,360,2.0,4.0,64,0.00,FEW,FEW,0.00,802.0,WeatherDisplay:10.37,2013-09-14 18:30:00,
2013-09-14 14:35:00,65.7,52.8,30.09,North,360,2.0,5.0,63,0.00,OVC,OVC,0.00,179.0,WeatherDisplay:10.37,2013-09-14 18:35:00,
2013-09-14 14:40:00,65.8,54.1,30.09,North,360,1.0,5.0,66,0.00,OVC,OVC,0.00,250.0,WeatherDisplay:10.37,2013-09-14 18:40:00,
2013-09-14 14:45:00,66.3,55.4,30.09,North,360,2.0,6.0,68,0.00,FEW,FEW,0.00,861.0,WeatherDisplay:10.37,2013-09-14 18:45:00,
2013-09-14 14:50:00,66.7,55.8,30.09,North,360,2.0,6.0,68,0.00,OVC,OVC,0.00,153.0,WeatherDisplay:10.37,2013-09-14 18:50:00,
2013-09-14 15:00:00,67.4,54.8,30.08,North,360,3.0,9.0,64,0.00,OVC,OVC,0.00,306.0,WeatherDisplay:10.37,2013-09-14 19:00:00,
2013-09-14 15:05:00,67.5,55.8,30.08,North,360,3.0,5.0,66,0.00,CLR,CLR,0.00,926.0,WeatherDisplay:10.37,2013-09-14 19:05:00,
2013-09-14 15:10:00,68.1,56.3,30.08,North,360,2.0,5.0,66,0.00,CLR,CLR,0.00,863.0,WeatherDisplay:10.37,2013-09-14 19:10:00,
2013-09-14 15:15:00,68.7,57.3,30.08,North,360,1.0,4.0,67,0.00,OVC,OVC,0.00,190.0,WeatherDisplay:10.37,2013-09-14 19:15:00,
2013-09-14 15:20:00,68.6,55.5,30.08,North,360,3.0,9.0,63,0.00,OVC,OVC,0.00,200.0,WeatherDisplay:10.37,2013-09-14 19:20:00,
2013-09-14 15:30:00,67.8,56.4,30.08,North,360,3.0,6.0,67,0.00,OVC,OVC,0.00,155.0,WeatherDisplay:10.37,2013-09-14 19:30:00,
2013-09-14 15:40:00,66.5,55.2,30.08,North,360,3.0,6.0,67,0.00,OVC,OVC,0.00,158.0,WeatherDisplay:10.37,2013-09-14 19:40:00,
2013-09-14 15:45:00,66.0,55.9,30.08,North,360,2.0,7.0,70,0.00,OVC,OVC,0.00,155.0,WeatherDisplay:10.37,2013-09-14 19:45:00,
2013-09-14 15:50:00,65.6,56.3,30.08,North,360,2.0,6.0,72,0.00,OVC,OVC,0.00,185.0,WeatherDisplay:10.37,2013-09-14 19:50:00,
2013-09-14 16:00:00,65.4,56.9,30.08,North,360,5.0,12.0,74,0.00,OVC,OVC,0.00,246.0,WeatherDisplay:10.37,2013-09-14 20:00:00,
2013-09-14 16:10:00,65.7,56.8,30.08,North,360,2.0,6.0,73,0.00,OVC,OVC,0.00,264.0,WeatherDisplay:10.37,2013-09-14 20:10:00,
2013-09-14 16:15:00,65.9,57.0,30.08,North,360,2.0,7.0,73,0.00,OVC,OVC,0.00,260.0,WeatherDisplay:10.37,2013-09-14 20:15:00,
2013-09-14 16:20:00,66.1,56.0,30.08,North,360,1.0,5.0,70,0.00,BKN,BKN,0.00,274.0,WeatherDisplay:10.37,2013-09-14 20:20:00,
2013-09-14 16:30:00,66.6,56.5,30.09,North,360,3.0,7.0,70,0.00,OVC,OVC,0.00,186.0,WeatherDisplay:10.37,2013-09-14 20:30:00,
2013-09-14 16:40:00,66.2,57.7,30.09,North,360,2.0,7.0,74,0.00,OVC,OVC,0.00,186.0,WeatherDisplay:10.37,2013-09-14 20:40:00,
2013-09-14 16:49:00,65.6,57.8,30.09,North,360,3.0,9.0,76,0.00,OVC,OVC,0.00,206.0,WeatherDisplay:10.37,2013-09-14 20:49:00,
2013-09-14 16:55:00,65.3,55.7,30.10,North,360,3.0,9.0,71,0.00,OVC,OVC,0.00,206.0,WeatherDisplay:10.37,2013-09-14 20:55:00,
2013-09-14 17:00:00,65.2,57.1,30.10,North,360,0.0,5.0,75,0.00,BKN,BKN,0.00,209.0,WeatherDisplay:10.37,2013-09-14 21:00:00,
2013-09-14 17:05:00,65.2,56.3,30.10,North,360,3.0,9.0,73,0.00,BKN,BKN,0.00,223.0,WeatherDisplay:10.37,2013-09-14 21:05:00,
2013-09-14 17:10:00,65.2,56.3,30.10,North,360,3.0,10.0,73,0.00,BKN,BKN,0.00,220.0,WeatherDisplay:10.37,2013-09-14 21:10:00,
2013-09-14 17:20:00,65.3,56.8,30.10,North,360,2.0,7.0,74,0.00,BKN,BKN,0.00,211.0,WeatherDisplay:10.37,2013-09-14 21:20:00,
2013-09-14 17:25:00,65.4,57.6,30.10,North,360,1.0,5.0,76,0.00,BKN,BKN,0.00,186.0,WeatherDisplay:10.37,2013-09-14 21:25:00,
2013-09-14 17:30:00,65.5,56.6,30.10,North,360,6.0,10.0,73,0.00,BKN,BKN,0.00,178.0,WeatherDisplay:10.37,2013-09-14 21:30:00,
2013-09-14 17:35:00,65.4,56.9,30.11,North,360,5.0,7.0,74,0.00,BKN,BKN,0.00,167.0,WeatherDisplay:10.37,2013-09-14 21:35:00,
2013-09-14 17:45:00,64.9,56.1,30.11,North,360,3.0,12.0,73,0.00,BKN,BKN,0.00,148.0,WeatherDisplay:10.37,2013-09-14 21:45:00,
2013-09-14 17:50:00,64.9,56.4,30.11,North,360,3.0,10.0,74,0.00,BKN,BKN,0.00,158.0,WeatherDisplay:10.37,2013-09-14 21:50:00,
2013-09-14 18:00:00,64.9,55.7,30.11,North,360,2.0,5.0,72,0.00,OVC,OVC,0.00,97.0,WeatherDisplay:10.37,2013-09-14 22:00:00,
2013-09-14 18:04:00,64.7,55.8,30.11,North,360,3.0,8.0,73,0.00,OVC,OVC,0.00,95.0,WeatherDisplay:10.37,2013-09-14 22:04:00,
2013-09-14 18:10:00,64.4,55.6,30.11,North,360,2.0,10.0,73,0.00,OVC,OVC,0.00,86.0,WeatherDisplay:10.37,2013-09-14 22:10:00,
2013-09-14 18:15:00,64.1,54.9,30.11,North,360,3.0,7.0,72,0.00,OVC,OVC,0.00,86.0,WeatherDisplay:10.37,2013-09-14 22:15:00,
2013-09-14 18:20:00,63.9,54.7,30.12,North,360,3.0,5.0,72,0.00,OVC,OVC,0.00,81.0,WeatherDisplay:10.37,2013-09-14 22:20:00,
2013-09-14 18:25:00,63.8,55.0,30.12,North,360,2.0,5.0,73,0.00,BKN,BKN,0.00,86.0,WeatherDisplay:10.37,2013-09-14 22:25:00,
2013-09-14 18:35:00,63.8,55.4,30.12,North,360,1.0,4.0,74,0.00,BKN,BKN,0.00,88.0,WeatherDisplay:10.37,2013-09-14 22:35:00,
2013-09-14 18:44:00,64.0,56.6,30.12,North,360,0.0,0.0,77,0.00,BKN,BKN,0.00,74.0,WeatherDisplay:10.37,2013-09-14 22:44:00,
2013-09-14 18:50:00,64.0,57.0,30.12,North,360,0.0,3.0,78,0.00,BKN,BKN,0.00,69.0,WeatherDisplay:10.37,2013-09-14 22:50:00,
2013-09-14 19:00:00,63.7,56.7,30.12,North,360,0.0,2.0,78,0.00,BKN,BKN,0.00,46.0,WeatherDisplay:10.37,2013-09-14 23:00:00,
2013-09-14 19:05:00,63.5,55.4,30.12,North,360,0.0,1.0,75,0.00,BKN,BKN,0.00,39.0,WeatherDisplay:10.37,2013-09-14 23:05:00,
2013-09-14 19:10:00,63.4,55.0,30.12,North,360,0.0,0.0,74,0.00,BKN,BKN,0.00,39.0,WeatherDisplay:10.37,2013-09-14 23:10:00,
2013-09-14 19:15:00,63.4,55.7,30.12,North,360,0.0,2.0,76,0.00,BKN,BKN,0.00,32.0,WeatherDisplay:10.37,2013-09-14 23:15:00,
2013-09-14 19:24:00,63.4,56.1,30.12,North,360,0.0,0.0,77,0.00,BKN,BKN,0.00,18.0,WeatherDisplay:10.37,2013-09-14 23:24:00,
2013-09-14 19:30:00,63.2,56.2,30.12,North,360,0.0,4.0,78,0.00,BKN,BKN,0.00,11.0,WeatherDisplay:10.37,2013-09-14 23:30:00,
2013-09-14 19:40:00,62.8,56.6,30.12,North,360,0.0,0.0,80,0.00,OVC,OVC,0.00,0.0,WeatherDisplay:10.37,2013-09-14 23:40:00,
2013-09-14 19:45:00,62.7,56.4,30.12,North,360,0.0,0.0,80,0.00,OVC,OVC,0.00,0.0,WeatherDisplay:10.37,2013-09-14 23:45:00,
2013-09-14 19:50:00,62.4,56.2,30.13,North,360,0.0,0.0,80,0.00,OVC,OVC,0.00,0.0,WeatherDisplay:10.37,2013-09-14 23:50:00,
2013-09-14 19:55:00,62.3,56.0,30.13,North,360,0.0,0.0,80,0.00,OVC,OVC,0.00,0.0,WeatherDisplay:10.37,2013-09-14 23:55:00,
2013-09-14 20:00:00,62.1,56.8,30.13,North,360,0.0,0.0,83,0.00,CLR,CLR,0.00,0.0,WeatherDisplay:10.37,2013-09-15 00:00:00,
2013-09-14 20:05:00,61.9,56.7,30.13,North,360,0.0,0.0,83,0.00,CLR,CLR,0.00,0.0,WeatherDisplay:10.37,2013-09-15 00:05:00,
2013-09-14 20:10:00,61.5,56.6,30.13,North,360,0.0,0.0,84,0.00,CLR,CLR,0.00,0.0,WeatherDisplay:10.37,2013-09-15 00:10:00,
2013-09-14 20:20:00,60.9,56.4,30.13,North,360,2.0,3.0,85,0.00,CLR,CLR,0.00,0.0,WeatherDisplay:10.37,2013-09-15 00:20:00,
2013-09-14 20:25:00,60.2,56.0,30.13,North,360,2.0,3.0,86,0.00,CLR,CLR,0.00,0.0,WeatherDisplay:10.37,2013-09-15 00:25:00,
2013-09-14 20:30:00,60.0,56.1,30.14,North,360,1.0,4.0,87,0.00,CLR,CLR,0.00,0.0,WeatherDisplay:10.37,2013-09-15 00:30:00,
2013-09-14 20:40:00,59.6,55.7,30.14,North,360,0.0,0.0,87,0.00,CLR,CLR,0.00,0.0,WeatherDisplay:10.37,2013-09-15 00:40:00,
2013-09-14 20:44:00,59.5,55.6,30.14,North,360,0.0,0.0,87,0.00,CLR,CLR,0.00,0.0,WeatherDisplay:10.37,2013-09-15 00:44:00,
2013-09-14 20:49:00,59.3,55.7,30.14,North,360,2.0,3.0,88,0.00,CLR,CLR,0.00,0.0,WeatherDisplay:10.37,2013-09-15 00:49:00,
2013-09-14 20:55:00,59.0,55.4,30.14,North,360,1.0,3.0,88,0.00,CLR,CLR,0.00,0.0,WeatherDisplay:10.37,2013-09-15 00:55:00,
2013-09-14 21:00:00,59.0,55.4,30.14,North,360,0.0,1.0,88,0.00,CLR,CLR,0.00,0.0,WeatherDisplay:10.37,2013-09-15 01:00:00,
2013-09-14 21:05:00,59.0,55.4,30.15,North,360,0.0,1.0,88,0.00,CLR,CLR,0.00,0.0,WeatherDisplay:10.37,2013-09-15 01:05:00,
2013-09-14 21:10:00,59.0,55.4,30.15,North,360,0.0,1.0,88,0.00,CLR,CLR,0.00,0.0,WeatherDisplay:10.37,2013-09-15 01:10:00,
2013-09-14 21:15:00,58.7,55.4,30.15,North,360,1.0,3.0,89,0.00,CLR,CLR,0.00,0.0,WeatherDisplay:10.37,2013-09-15 01:15:00,
2013-09-14 21:20:00,58.3,55.4,30.15,North,360,0.0,0.0,90,0.00,CLR,CLR,0.00,0.0,WeatherDisplay:10.37,2013-09-15 01:20:00,
2013-09-14 21:25:00,58.0,55.1,30.15,North,360,0.0,2.0,90,0.00,CLR,CLR,0.00,0.0,WeatherDisplay:10.37,2013-09-15 01:25:00,
2013-09-14 21:30:00,57.6,54.7,30.15,North,360,1.0,4.0,90,0.00,CLR,CLR,0.00,0.0,WeatherDisplay:10.37,2013-09-15 01:30:00,
2013-09-14 21:35:00,57.4,54.7,30.15,North,360,3.0,4.0,91,0.00,CLR,CLR,0.00,0.0,WeatherDisplay:10.37,2013-09-15 01:35:00,
2013-09-14 21:40:00,57.0,54.4,30.15,North,360,3.0,5.0,91,0.00,CLR,CLR,0.00,0.0,WeatherDisplay:10.37,2013-09-15 01:40:00,
2013-09-14 21:50:00,56.9,54.3,30.16,North,360,2.0,3.0,91,0.00,CLR,CLR,0.00,0.0,WeatherDisplay:10.37,2013-09-15 01:50:00,
2013-09-14 21:55:00,56.7,54.1,30.16,North,360,0.0,4.0,91,0.00,CLR,CLR,0.00,0.0,WeatherDisplay:10.37,2013-09-15 01:55:00,
2013-09-14 22:00:00,56.5,53.9,30.17,North,360,2.0,4.0,91,0.00,CLR,CLR,0.00,0.0,WeatherDisplay:10.37,2013-09-15 02:00:00,
2013-09-14 22:05:00,56.3,53.7,30.17,North,360,2.0,3.0,91,0.00,CLR,CLR,0.00,0.0,WeatherDisplay:10.37,2013-09-15 02:05:00,
2013-09-14 22:15:00,56.3,53.5,30.16,North,360,2.0,4.0,90,0.00,CLR,CLR,0.00,0.0,WeatherDisplay:10.37,2013-09-15 02:15:00,
2013-09-14 22:24:00,56.3,53.4,30.17,North,360,0.0,2.0,90,0.00,CLR,CLR,0.00,0.0,WeatherDisplay:10.37,2013-09-15 02:24:00,
2013-09-14 22:30:00,56.3,53.4,30.16,North,360,0.0,1.0,90,0.00,CLR,CLR,0.00,0.0,WeatherDisplay:10.37,2013-09-15 02:30:00,
2013-09-14 22:35:00,56.2,53.3,30.16,North,360,0.0,0.0,90,0.00,CLR,CLR,0.00,0.0,WeatherDisplay:10.37,2013-09-15 02:35:00,
2013-09-14 22:45:00,55.9,53.3,30.17,North,360,0.0,0.0,91,0.00,CLR,CLR,0.00,0.0,WeatherDisplay:10.37,2013-09-15 02:45:00,
2013-09-14 22:55:00,55.7,53.1,30.17,North,360,0.0,0.0,91,0.00,CLR,CLR,0.00,0.0,WeatherDisplay:10.37,2013-09-15 02:55:00,
2013-09-14 23:00:00,55.6,53.0,30.17,North,360,0.0,0.0,91,0.00,CLR,CLR,0.00,0.0,WeatherDisplay:10.37,2013-09-15 03:00:00,
2013-09-14 23:10:00,55.4,52.8,30.17,North,360,0.0,0.0,91,0.00,CLR,CLR,0.00,0.0,WeatherDisplay:10.37,2013-09-15 03:10:00,
2013-09-14 23:15:00,55.0,52.5,30.17,North,360,0.0,2.0,91,0.00,CLR,CLR,0.00,0.0,WeatherDisplay:10.37,2013-09-15 03:15:00,
2013-09-14 23:24:00,54.4,52.4,30.18,North,360,0.0,3.0,93,0.00,CLR,CLR,0.00,0.0,WeatherDisplay:10.37,2013-09-15 03:24:00,
2013-09-14 23:30:00,54.1,52.5,30.18,North,360,0.0,0.0,94,0.00,CLR,CLR,0.00,0.0,WeatherDisplay:10.37,2013-09-15 03:30:00,
2013-09-14 23:35:00,54.0,52.3,30.18,North,360,1.0,2.0,94,0.00,CLR,CLR,0.00,0.0,WeatherDisplay:10.37,2013-09-15 03:35:00,
2013-09-14 23:44:00,53.7,52.0,30.19,North,360,3.0,5.0,94,0.00,CLR,CLR,0.00,0.0,WeatherDisplay:10.37,2013-09-15 03:44:00,
2013-09-14 23:49:00,53.5,51.5,30.19,North,360,5.0,5.0,93,0.00,CLR,CLR,0.00,0.0,WeatherDisplay:10.37,2013-09-15 03:49:00,
2013-09-14 23:55:00,53.3,51.4,30.19,North,360,5.0,6.0,93,0.00,CLR,CLR,0.00,0.0,WeatherDisplay:10.37,2013-09-15 03:55:00,